Louis Armstrong New Orleans International Airport New Orleans US
ICAO: KMSY
IATA: MSY
Category: Large
Scheduled Services: Yes

Elevation: 4 ft
TransAlt. 18000 ft.

Airport Communications:
NEW ORLEANS APP/DEP:123.85
ATIS:127.55
CLNC DEL:127.2
GND:121.9
TWR:119.5
UNICOM:122.95

KMSY Zoom In..

If Map Doesn't Load, Click Here

Runways:

(A) RW 01 length 7001 ft width 150 ft
ILS 111.70 / hdg 13

(B) RW 10 length 10104 ft width 150 ft
ILS 109.90 / hdg 103

(C) RW 19 length 7001 ft width 150 ft
LOC 111.70 / hdg 193

(D) RW 28 length 10104 ft width 150 ft
ILS 109.90 / hdg 283

Location; KMSY
Day. 21 / Time. 14.53 Zulu
* Altimeter: 30.06
* Temperature: 31° c. 87.8°f.
* Wind from: 140° Speed 07 kn.
Dewpoint: 27° c.
Visibility: 10 Statute Miles.
Clouds: Few 2200 ft.
Clouds: Few 7500 ft.
Clouds: Scattered 25000 ft.
Conditions: Cumulonimbus.

KMSY 211453Z 14007KT 10SM FEW022 FEW075 SCT250 31/27 A3006 RMK AO2 SLP181 CB DSNT S AND SW T03060267 51007


Wind From 140°
Speed 07 kn.

 
 
jpsmedia.com for Web Design worldairports.se 2018   terms of use